»·PEaware :: D-CDLH KCMA-KDLO

D-CDLH :: KCMA-KDLO

FLIGHT INFORMATION

Flight Status: Arrived
Operator: Privately registered:
Germany
More flights under this callsign
Pilot: Kim B. (19519)
Aircraft: Unknown
(JU52)
More flights by this aircraft type
Origin: KCMA Camarillo
United States
Destination: KDLO Delano Mun
United States
More flights between these airports :: More routes between these airports
Route: V186 RZS V183 EHF
File this flight plan on PilotEdge
Remarks:
Altitude:
(Current/Filed)
9,000ft
Speed:
(Current/Filed)
110kts
Departed: 22-Sep-18 07:48 PM
Arrived: 22-Sep-18 08:48 PM
Distance/Time
Traveled:
92nm/1:00
Distance/Time
To Go:
Arrived

Flight Plot

Page will automatically refresh every two minutes.

Flight plan parsing failed; only flown route is shown


Map Options




Map Legend


Flown Route
Filed Route
Departure Airport
Arrival Airport
Navaid (VOR, NDB)
Fix

Horizontal Profiles

Position Reports

Time Latitude Longitude Heading Altitude Ground
Speed
22-Sep-18 19:31 34.210075 -119.077103 90 80ft 0kts
22-Sep-18 19:32 34.210075 -119.077103 90 80ft 0kts
22-Sep-18 19:33 34.210075 -119.077103 90 80ft 0kts
22-Sep-18 19:34 34.210075 -119.077103 90 80ft 0kts
22-Sep-18 19:35 34.210075 -119.077103 90 80ft 0kts
22-Sep-18 19:36 34.210075 -119.077103 90 80ft 0kts
22-Sep-18 19:37 34.210075 -119.077103 90 80ft 0kts
22-Sep-18 19:38 34.210075 -119.077103 90 80ft 0kts
22-Sep-18 19:39 34.210075 -119.077103 90 80ft 0kts
22-Sep-18 19:40 34.210075 -119.077103 90 80ft 0kts
22-Sep-18 19:41 34.210075 -119.077103 90 80ft 0kts
22-Sep-18 19:42 34.210075 -119.077103 90 80ft 0kts
22-Sep-18 19:43 34.210179 -119.076824 40 80ft 7kts
22-Sep-18 19:44 34.210896 -119.079526 269 80ft 13kts
22-Sep-18 19:45 34.211259 -119.084607 21 80ft 10kts
22-Sep-18 19:46 34.212836 -119.084608 0 80ft 0kts
22-Sep-18 19:47 34.212836 -119.084608 0 80ft 0kts
22-Sep-18 19:48 34.212836 -119.084608 0 80ft 0kts
22-Sep-18 19:49 34.213684 -119.084855 270 80ft 0kts
22-Sep-18 19:50 34.213685 -119.095186 270 81ft 67kts
22-Sep-18 19:51 34.218194 -119.122948 286 811ft 88kts
22-Sep-18 19:52 34.225622 -119.150729 287 1747ft 87kts
22-Sep-18 19:53 34.233054 -119.178402 287 2637ft 87kts
22-Sep-18 19:54 34.240451 -119.205902 287 3490ft 86kts
22-Sep-18 19:55 34.247872 -119.233740 287 4246ft 93kts
22-Sep-18 19:56 34.260263 -119.263525 297 4873ft 102kts
22-Sep-18 19:57 34.273292 -119.293675 297 5559ft 100kts
22-Sep-18 19:58 34.286288 -119.323734 297 6169ft 101kts
22-Sep-18 19:59 34.299082 -119.353323 297 6822ft 96kts
22-Sep-18 20:00 34.311448 -119.381986 297 7563ft 102kts
22-Sep-18 20:01 34.324570 -119.412368 297 8378ft 103kts
22-Sep-18 20:02 34.338596 -119.443581 298 8832ft 132kts
22-Sep-18 20:03 34.356390 -119.482710 298 8996ft 139kts
22-Sep-18 20:04 34.375477 -119.524561 298 9001ft 143kts
22-Sep-18 20:05 34.392206 -119.561234 298 8998ft 139kts
22-Sep-18 20:06 34.411608 -119.601175 303 9000ft 137kts
22-Sep-18 20:07 34.433300 -119.639052 305 9000ft 136kts
22-Sep-18 20:08 34.456045 -119.675717 306 9000ft 136kts
22-Sep-18 20:09 34.478884 -119.712485 306 9000ft 136kts
22-Sep-18 20:10 34.501723 -119.749243 306 9000ft 136kts
22-Sep-18 20:11 34.536599 -119.753348 16 8997ft 136kts
22-Sep-18 20:12 34.570723 -119.733470 25 9001ft 136kts
22-Sep-18 20:13 34.602534 -119.714135 26 9000ft 136kts
22-Sep-18 20:14 34.630762 -119.696633 26 9000ft 136kts
22-Sep-18 20:15 34.670282 -119.672119 26 9000ft 136kts
22-Sep-18 20:16 34.703334 -119.649624 30 9000ft 136kts
22-Sep-18 20:17 34.735868 -119.625534 31 9000ft 136kts
22-Sep-18 20:18 34.768045 -119.601041 31 9000ft 136kts
22-Sep-18 20:19 34.800278 -119.576480 31 9000ft 136kts
22-Sep-18 20:20 34.827065 -119.556134 30 9001ft 136kts
22-Sep-18 20:21 34.865905 -119.530026 27 9000ft 136kts
22-Sep-18 20:22 34.893860 -119.511873 27 9000ft 136kts
22-Sep-18 20:23 34.932874 -119.486217 29 9000ft 137kts
22-Sep-18 20:24 34.960251 -119.466713 30 9000ft 137kts
22-Sep-18 20:25 34.992923 -119.442736 30 9000ft 137kts
22-Sep-18 20:26 35.025457 -119.418822 30 9000ft 137kts
22-Sep-18 20:27 35.057985 -119.394904 30 9000ft 137kts
22-Sep-18 20:28 35.090623 -119.370895 30 9000ft 137kts
22-Sep-18 20:29 35.123546 -119.347642 29 9000ft 137kts
22-Sep-18 20:30 35.156816 -119.325044 28 9000ft 137kts
22-Sep-18 20:31 35.189710 -119.302688 28 9000ft 136kts
22-Sep-18 20:32 35.222763 -119.280275 27 9001ft 136kts
22-Sep-18 20:33 35.256124 -119.258394 29 9000ft 136kts
22-Sep-18 20:34 35.289066 -119.235982 28 9000ft 135kts
22-Sep-18 20:35 35.321519 -119.213878 28 9000ft 132kts
22-Sep-18 20:36 35.356799 -119.190097 29 8134ft 165kts
22-Sep-18 20:37 35.395270 -119.163904 29 6628ft 153kts
22-Sep-18 20:38 35.431894 -119.138906 29 5160ft 150kts
22-Sep-18 20:39 35.468034 -119.114236 29 3724ft 149kts
22-Sep-18 20:40 35.506859 -119.118505 340 2303ft 146kts
22-Sep-18 20:41 35.537076 -119.127189 349 2374ft 93kts
22-Sep-18 20:42 35.559057 -119.138035 337 2377ft 79kts
22-Sep-18 20:43 35.578681 -119.148335 336 2336ft 87kts
22-Sep-18 20:44 35.603774 -119.165570 331 2143ft 116kts
22-Sep-18 20:45 35.632351 -119.183849 337 2059ft 112kts
22-Sep-18 20:46 35.661316 -119.194603 344 2101ft 103kts
22-Sep-18 20:47 35.688628 -119.207628 337 2117ft 97kts
22-Sep-18 20:48 35.715198 -119.222338 336 1528ft 117kts
22-Sep-18 20:49 35.745825 -119.236628 338 322ft 96kts
22-Sep-18 20:50 35.754176 -119.240658 336 320ft 0kts
22-Sep-18 20:51 35.753638 -119.241014 195 320ft 9kts
22-Sep-18 20:52 35.750567 -119.240515 164 320ft 6kts
22-Sep-18 20:53 35.747164 -119.239709 207 320ft 7kts
22-Sep-18 20:54 35.747140 -119.239726 212 321ft 0kts
22-Sep-18 20:55 35.747140 -119.239726 212 321ft 0kts
22-Sep-18 20:56 35.747140 -119.239726 212 321ft 0kts

Navigation Log

Ident Type
Flight plan parsing failed, navigation log unavailable